Gabriella — OJHP — position and weather

sailwx.info

Track history (hours):
 
Tides and Currents Weather Stations Pressure Air Temp Water Temp Dewpoint Dewpoint Depression Visibility Wind Speed Wind Dir Waves Ship Positions

Gabriella

Last reported at 2015-Jan-26 17:12 UTC. Time now 2015-Jan-26 22:35 UTC.
Position N 59°28' E 018°26'.

Length 172 m; draft 6.5 m.

Type: Passenger vessel. MMSI: 230361000.

Date/timePositionNaut miles runAvg speedWind from/ knotsBaromVisibWave heightAir tempDewpointWater temp
2015-Jan-26 17:12N 59°28' E 018°26'7 9.9
2015-Jan-26 16:31N 59°22' E 018°27'1010.5
2015-Jan-26 15:33N 59°19' E 018°08'1 0.8
2015-Jan-26 14:33N 59°19' E 018°06'0 0.0
2015-Jan-26 13:30N 59°19' E 018°06'0 0.0
2015-Jan-26 12:33N 59°19' E 018°06'0 0.0
2015-Jan-26 11:33N 59°19' E 018°06'0 0.0
2015-Jan-26 10:27N 59°19' E 018°06'0 0.0
2015-Jan-26 09:33N 59°19' E 018°06'2 1.8
2015-Jan-26 08:34N 59°19' E 018°09'91 9.8
2015-Jan-25 23:18N 59°37' E 021°05'1317.5
2015-Jan-25 22:33N 59°34' E 021°30'5417.3
2015-Jan-25 19:24N 59°40' E 023°17'1517.5
2015-Jan-25 18:33N 59°44' E 023°45'1717.5
2015-Jan-25 17:34N 59°49' E 024°18'2914.0
2015-Jan-25 15:31N 60°10' E 024°58'23 2.6
2015-Jan-25 06:23N 59°51' E 024°29'1618.9
2015-Jan-25 05:33N 59°47' E 023°59'1918.8
2015-Jan-25 04:33N 59°42' E 023°23'4218.6
2015-Jan-25 02:18N 59°33' E 022°02'1418.2
2015-Jan-25 01:34N 59°33' E 021°36'9611.5
2015-Jan-24 17:13N 59°28' E 018°26'7 9.9
2015-Jan-24 16:33N 59°22' E 018°27'1010.2
2015-Jan-24 15:34N 59°19' E 018°08'1 0.9
2015-Jan-24 14:33N 59°19' E 018°06'0 0.0
2015-Jan-24 13:33N 59°19' E 018°06'0 0.0
2015-Jan-24 12:33N 59°19' E 018°06'0 0.0
2015-Jan-24 11:33N 59°19' E 018°06'0 0.0
2015-Jan-24 10:33N 59°19' E 018°06'0 0.0
2015-Jan-24 09:33N 59°19' E 018°06'2 2.0
2015-Jan-24 08:33N 59°19' E 018°10'9 9.4
2015-Jan-24 07:33N 59°23' E 018°27'82 9.9
2015-Jan-23 23:14N 59°38' E 021°06'1218.1
2015-Jan-23 22:33N 59°34' E 021°30'5317.3
2015-Jan-23 19:29N 59°40' E 023°14'1617.4
2015-Jan-23 18:33N 59°44' E 023°45'1817.4
2015-Jan-23 17:33N 59°49' E 024°18'2914.1
2015-Jan-23 15:31N 60°10' E 024°58'7 0.9
2015-Jan-23 07:25N 60°03' E 024°58'1717.5
2015-Jan-23 06:27N 59°53' E 024°30'1718.1
2015-Jan-23 05:32N 59°47' E 023°59'1818.4
2015-Jan-23 04:33N 59°42' E 023°25'4318.4
2015-Jan-23 02:13N 59°33' E 022°02'1218.4
2015-Jan-23 01:33N 59°32' E 021°38'9711.7
2015-Jan-22 17:14N 59°28' E 018°26'7 6.4
2015-Jan-22 16:11N 59°22' E 018°19'711.1
2015-Jan-22 15:34N 59°19' E 018°07'1 0.5
2015-Jan-22 14:28N 59°19' E 018°06'0 0.0
2015-Jan-22 13:31N 59°19' E 018°06'0 0.0
2015-Jan-22 12:31N 59°19' E 018°06'0 0.0
2015-Jan-22 11:31N 59°19' E 018°06'0 0.0
2015-Jan-22 10:31N 59°19' E 018°06'0 0.0
2015-Jan-22 09:31N 59°19' E 018°06'2 1.9
2015-Jan-22 08:33N 59°19' E 018°10'9810.1
2015-Jan-21 22:50N 59°35' E 021°20'117.6
2015-Jan-21 22:46N 59°35' E 021°22'417.8
2015-Jan-21 22:34N 59°34' E 021°30'5417.2
2015-Jan-21 19:27N 59°40' E 023°15'1617.4
2015-Jan-21 18:33N 59°44' E 023°45'1817.5
2015-Jan-21 17:31N 59°49' E 024°19'2117.3
2015-Jan-21 16:17N 60°00' E 024°55'1013.2
2015-Jan-21 15:33N 60°10' E 024°58'0 0.0
2015-Jan-21 08:06N 60°10' E 024°58'2213.9
2015-Jan-21 06:30N 59°52' E 024°30'1718.1
2015-Jan-21 05:33N 59°46' E 023°58'1818.2
2015-Jan-21 04:33N 59°42' E 023°23'4118.1
2015-Jan-21 02:15N 59°33' E 022°03'1217.8
2015-Jan-21 01:33N 59°33' E 021°39'9811.7
2015-Jan-20 17:13N 59°28' E 018°26'7 9.9
2015-Jan-20 16:33N 59°22' E 018°27'1010.2
2015-Jan-20 15:34N 59°19' E 018°08'1 0.9
2015-Jan-20 14:32N 59°19' E 018°06'0 0.0
2015-Jan-20 13:32N 59°19' E 018°06'0 0.0
2015-Jan-20 12:32N 59°19' E 018°06'0 0.0
2015-Jan-20 11:32N 59°19' E 018°06'0 0.0
2015-Jan-20 10:32N 59°19' E 018°06'0 0.0
2015-Jan-20 09:32N 59°19' E 018°06'2 2.1
2015-Jan-20 08:33N 59°19' E 018°10'91 9.8
2015-Jan-19 23:13N 59°37' E 021°06'1217.8
2015-Jan-19 22:33N 59°34' E 021°29'5417.4
2015-Jan-19 19:26N 59°40' E 023°15'1517.1
2015-Jan-19 18:33N 59°44' E 023°44'1817.2
2015-Jan-19 17:30N 59°49' E 024°19'2814.3
2015-Jan-19 15:30N 60°10' E 024°58'23 2.6
2015-Jan-19 06:27N 59°52' E 024°28'1618.2
2015-Jan-19 05:33N 59°46' E 023°57'1818.2
2015-Jan-19 04:33N 59°42' E 023°22'3818.2
2015-Jan-19 02:29N 59°34' E 022°10'1717.9
2015-Jan-19 01:34N 59°32' E 021°37'1818.0
2015-Jan-19 00:34N 59°36' E 021°03'8010.8
2015-Jan-18 17:11N 59°28' E 018°26'6 9.6
2015-Jan-18 16:33N 59°22' E 018°27'1010.3
2015-Jan-18 15:34N 59°19' E 018°08'1 0.8
2015-Jan-18 14:32N 59°19' E 018°06'0 0.0
2015-Jan-18 13:32N 59°19' E 018°06'0 0.0
2015-Jan-18 12:32N 59°19' E 018°06'0 0.0
2015-Jan-18 11:32N 59°19' E 018°06'0 0.0
2015-Jan-18 10:32N 59°19' E 018°06'0 0.0
2015-Jan-18 09:32N 59°19' E 018°06'2 1.9
2015-Jan-18 08:34N 59°19' E 018°09'96 9.6
2015-Jan-17 22:32N 59°35' E 021°17'6917.2
2015-Jan-17 18:33N 59°42' E 023°32'2419.5
2015-Jan-17 17:19N 59°49' E 024°17'2916.0
2015-Jan-17 15:30N 60°10' E 024°58'39 3.9
2015-Jan-17 05:31N 59°46' E 023°56'5818.5
2015-Jan-17 02:24N 59°32' E 022°05'1518.0
2015-Jan-17 01:34N 59°33' E 021°35'9611.5
2015-Jan-16 17:14N 59°28' E 018°26'  
Track history (hours):
 
Tides and Currents Weather Stations Pressure Air Temp Water Temp Dewpoint Dewpoint Depression Visibility Wind Speed Wind Dir Waves Ship Positions

Gabriella

Last reported at 2015-Jan-26 17:12 UTC. Time now 2015-Jan-26 22:35 UTC.
Position N 59°28' E 018°26'.

Length 172 m; draft 6.5 m.

Type: Passenger vessel. MMSI: 230361000.

Date/timePositionNaut miles runAvg speedWind from/ knotsBaromVisibWave heightAir tempDewpointWater temp
2015-Jan-26 17:12N 59°28' E 018°26'7 9.9
2015-Jan-26 16:31N 59°22' E 018°27'1010.5
2015-Jan-26 15:33N 59°19' E 018°08'1 0.8
2015-Jan-26 14:33N 59°19' E 018°06'0 0.0
2015-Jan-26 13:30N 59°19' E 018°06'0 0.0
2015-Jan-26 12:33N 59°19' E 018°06'0 0.0
2015-Jan-26 11:33N 59°19' E 018°06'0 0.0
2015-Jan-26 10:27N 59°19' E 018°06'0 0.0
2015-Jan-26 09:33N 59°19' E 018°06'2 1.8
2015-Jan-26 08:34N 59°19' E 018°09'91 9.8
2015-Jan-25 23:18N 59°37' E 021°05'1317.5
2015-Jan-25 22:33N 59°34' E 021°30'5417.3
2015-Jan-25 19:24N 59°40' E 023°17'1517.5
2015-Jan-25 18:33N 59°44' E 023°45'1717.5
2015-Jan-25 17:34N 59°49' E 024°18'2914.0
2015-Jan-25 15:31N 60°10' E 024°58'23 2.6
2015-Jan-25 06:23N 59°51' E 024°29'1618.9
2015-Jan-25 05:33N 59°47' E 023°59'1918.8
2015-Jan-25 04:33N 59°42' E 023°23'4218.6
2015-Jan-25 02:18N 59°33' E 022°02'1418.2
2015-Jan-25 01:34N 59°33' E 021°36'9611.5
2015-Jan-24 17:13N 59°28' E 018°26'7 9.9
2015-Jan-24 16:33N 59°22' E 018°27'1010.2
2015-Jan-24 15:34N 59°19' E 018°08'1 0.9
2015-Jan-24 14:33N 59°19' E 018°06'0 0.0
2015-Jan-24 13:33N 59°19' E 018°06'0 0.0
2015-Jan-24 12:33N 59°19' E 018°06'0 0.0
2015-Jan-24 11:33N 59°19' E 018°06'0 0.0
2015-Jan-24 10:33N 59°19' E 018°06'0 0.0
2015-Jan-24 09:33N 59°19' E 018°06'2 2.0
2015-Jan-24 08:33N 59°19' E 018°10'9 9.4
2015-Jan-24 07:33N 59°23' E 018°27'82 9.9
2015-Jan-23 23:14N 59°38' E 021°06'1218.1
2015-Jan-23 22:33N 59°34' E 021°30'5317.3
2015-Jan-23 19:29N 59°40' E 023°14'1617.4
2015-Jan-23 18:33N 59°44' E 023°45'1817.4
2015-Jan-23 17:33N 59°49' E 024°18'2914.1
2015-Jan-23 15:31N 60°10' E 024°58'7 0.9
2015-Jan-23 07:25N 60°03' E 024°58'1717.5
2015-Jan-23 06:27N 59°53' E 024°30'1718.1
2015-Jan-23 05:32N 59°47' E 023°59'1818.4
2015-Jan-23 04:33N 59°42' E 023°25'4318.4
2015-Jan-23 02:13N 59°33' E 022°02'1218.4
2015-Jan-23 01:33N 59°32' E 021°38'9711.7
2015-Jan-22 17:14N 59°28' E 018°26'7 6.4
2015-Jan-22 16:11N 59°22' E 018°19'711.1
2015-Jan-22 15:34N 59°19' E 018°07'1 0.5
2015-Jan-22 14:28N 59°19' E 018°06'0 0.0
2015-Jan-22 13:31N 59°19' E 018°06'0 0.0
2015-Jan-22 12:31N 59°19' E 018°06'0 0.0
2015-Jan-22 11:31N 59°19' E 018°06'0 0.0
2015-Jan-22 10:31N 59°19' E 018°06'0 0.0
2015-Jan-22 09:31N 59°19' E 018°06'2 1.9
2015-Jan-22 08:33N 59°19' E 018°10'9810.1
2015-Jan-21 22:50N 59°35' E 021°20'117.6
2015-Jan-21 22:46N 59°35' E 021°22'417.8
2015-Jan-21 22:34N 59°34' E 021°30'5417.2
2015-Jan-21 19:27N 59°40' E 023°15'1617.4
2015-Jan-21 18:33N 59°44' E 023°45'1817.5
2015-Jan-21 17:31N 59°49' E 024°19'2117.3
2015-Jan-21 16:17N 60°00' E 024°55'1013.2
2015-Jan-21 15:33N 60°10' E 024°58'0 0.0
2015-Jan-21 08:06N 60°10' E 024°58'2213.9
2015-Jan-21 06:30N 59°52' E 024°30'1718.1
2015-Jan-21 05:33N 59°46' E 023°58'1818.2
2015-Jan-21 04:33N 59°42' E 023°23'4118.1
2015-Jan-21 02:15N 59°33' E 022°03'1217.8
2015-Jan-21 01:33N 59°33' E 021°39'9811.7
2015-Jan-20 17:13N 59°28' E 018°26'7 9.9
2015-Jan-20 16:33N 59°22' E 018°27'1010.2
2015-Jan-20 15:34N 59°19' E 018°08'1 0.9
2015-Jan-20 14:32N 59°19' E 018°06'0 0.0
2015-Jan-20 13:32N 59°19' E 018°06'0 0.0
2015-Jan-20 12:32N 59°19' E 018°06'0 0.0
2015-Jan-20 11:32N 59°19' E 018°06'0 0.0
2015-Jan-20 10:32N 59°19' E 018°06'0 0.0
2015-Jan-20 09:32N 59°19' E 018°06'2 2.1
2015-Jan-20 08:33N 59°19' E 018°10'91 9.8
2015-Jan-19 23:13N 59°37' E 021°06'1217.8
2015-Jan-19 22:33N 59°34' E 021°29'5417.4
2015-Jan-19 19:26N 59°40' E 023°15'1517.1
2015-Jan-19 18:33N 59°44' E 023°44'1817.2
2015-Jan-19 17:30N 59°49' E 024°19'2814.3
2015-Jan-19 15:30N 60°10' E 024°58'23 2.6
2015-Jan-19 06:27N 59°52' E 024°28'1618.2
2015-Jan-19 05:33N 59°46' E 023°57'1818.2
2015-Jan-19 04:33N 59°42' E 023°22'3818.2
2015-Jan-19 02:29N 59°34' E 022°10'1717.9
2015-Jan-19 01:34N 59°32' E 021°37'1818.0
2015-Jan-19 00:34N 59°36' E 021°03'8010.8
2015-Jan-18 17:11N 59°28' E 018°26'6 9.6
2015-Jan-18 16:33N 59°22' E 018°27'1010.3
2015-Jan-18 15:34N 59°19' E 018°08'1 0.8
2015-Jan-18 14:32N 59°19' E 018°06'0 0.0
2015-Jan-18 13:32N 59°19' E 018°06'0 0.0
2015-Jan-18 12:32N 59°19' E 018°06'0 0.0
2015-Jan-18 11:32N 59°19' E 018°06'0 0.0
2015-Jan-18 10:32N 59°19' E 018°06'0 0.0
2015-Jan-18 09:32N 59°19' E 018°06'2 1.9
2015-Jan-18 08:34N 59°19' E 018°09'96 9.6
2015-Jan-17 22:32N 59°35' E 021°17'6917.2
2015-Jan-17 18:33N 59°42' E 023°32'2419.5
2015-Jan-17 17:19N 59°49' E 024°17'2916.0
2015-Jan-17 15:30N 60°10' E 024°58'39 3.9
2015-Jan-17 05:31N 59°46' E 023°56'5818.5
2015-Jan-17 02:24N 59°32' E 022°05'1518.0
2015-Jan-17 01:34N 59°33' E 021°35'9611.5
2015-Jan-16 17:14N 59°28' E 018°26'  

Dump ship's entire track history